createdAt,value
2023-08-14T00:01:22.095Z,1.42
2023-08-14T00:03:50.025Z,2.22
2023-08-14T00:06:17.898Z,2.03
2023-08-14T00:08:47.258Z,1.80
2023-08-14T00:11:15.126Z,1.95
2023-08-14T00:13:53.819Z,1.60
2023-08-14T00:16:22.095Z,1.92
2023-08-14T00:18:50.114Z,1.52
2023-08-14T00:21:18.286Z,1.85
2023-08-14T00:23:47.505Z,2.20
2023-08-14T00:26:15.470Z,1.63
2023-08-14T00:28:43.444Z,2.00
2023-08-14T00:31:11.463Z,1.67
2023-08-14T00:33:39.334Z,2.28
2023-08-14T00:36:07.809Z,2.03
2023-08-14T00:38:35.743Z,1.90
2023-08-14T00:41:04.904Z,1.90
2023-08-14T00:43:32.707Z,1.80
2023-08-14T00:46:02.092Z,1.75
2023-08-14T00:48:30.562Z,2.20
2023-08-14T00:50:58.576Z,1.75
2023-08-14T00:53:28.355Z,2.08
2023-08-14T00:55:56.587Z,1.77
2023-08-14T00:58:26.934Z,1.70
2023-08-14T01:00:55.952Z,2.00
2023-08-14T01:03:26.031Z,1.75
2023-08-14T01:05:53.949Z,1.88
2023-08-14T01:08:21.951Z,2.10
2023-08-14T01:10:59.310Z,1.50
2023-08-14T01:13:36.020Z,1.98
2023-08-14T01:16:08.142Z,2.05
2023-08-14T01:18:39.055Z,1.85
2023-08-14T01:21:14.791Z,2.10
2023-08-14T01:23:51.813Z,1.70
2023-08-14T01:26:21.056Z,2.03
2023-08-14T01:28:49.300Z,1.90
2023-08-14T01:31:17.272Z,2.08
2023-08-14T01:33:45.166Z,1.70
2023-08-14T01:36:21.096Z,2.00
2023-08-14T01:38:58.356Z,2.03
2023-08-14T01:41:34.062Z,1.77
2023-08-14T01:44:04.636Z,1.75
2023-08-14T01:46:35.269Z,2.08
2023-08-14T01:49:04.856Z,1.70
2023-08-14T01:51:33.621Z,2.10
2023-08-14T01:54:01.747Z,1.88
2023-08-14T01:56:30.922Z,1.50
2023-08-14T01:58:58.816Z,1.83
2023-08-14T02:01:27.063Z,1.70
2023-08-14T02:03:55.067Z,1.90
2023-08-14T02:06:23.019Z,1.95
2023-08-14T02:08:50.819Z,1.60
2023-08-14T02:11:18.779Z,1.83
2023-08-14T02:13:47.999Z,2.05
2023-08-14T02:16:15.887Z,2.58
2023-08-14T02:18:43.873Z,1.42
2023-08-14T02:21:11.867Z,1.60
2023-08-14T02:23:39.786Z,1.30
2023-08-14T02:26:07.669Z,1.67
2023-08-14T02:28:35.546Z,1.85
2023-08-14T02:31:05.503Z,1.60
2023-08-14T02:33:33.558Z,1.60
2023-08-14T02:36:01.474Z,1.80
2023-08-14T02:38:31.369Z,1.80
2023-08-14T02:40:59.291Z,1.60
2023-08-14T02:43:27.192Z,1.67
2023-08-14T02:45:55.026Z,1.60
2023-08-14T02:48:24.494Z,2.10
2023-08-14T02:50:52.433Z,1.65
2023-08-14T02:53:20.251Z,1.55
2023-08-14T02:55:51.854Z,1.90
2023-08-14T02:58:20.296Z,2.10
2023-08-14T03:00:48.460Z,2.00
2023-08-14T03:03:16.627Z,1.70
2023-08-14T03:05:46.113Z,1.48
2023-08-14T03:08:13.931Z,2.05
2023-08-14T03:10:41.708Z,1.75
2023-08-14T03:13:10.869Z,1.73
2023-08-14T03:15:38.736Z,1.58
2023-08-14T03:18:06.723Z,1.58
2023-08-14T03:20:34.695Z,1.63
2023-08-14T03:23:04.050Z,1.80
2023-08-14T03:25:31.991Z,1.75
2023-08-14T03:27:59.841Z,1.70
2023-08-14T03:30:28.082Z,1.73
2023-08-14T03:32:56.213Z,1.63
2023-08-14T03:35:24.206Z,1.67
2023-08-14T03:37:52.094Z,1.90
2023-08-14T03:40:21.354Z,1.80
2023-08-14T03:42:49.206Z,1.55
2023-08-14T03:45:17.091Z,2.05
2023-08-14T03:47:44.963Z,1.80
2023-08-14T03:50:12.869Z,1.60
2023-08-14T03:52:41.105Z,1.95
2023-08-14T03:55:09.715Z,1.70
2023-08-14T03:57:38.996Z,2.22
2023-08-14T04:00:09.231Z,1.88
2023-08-14T04:02:37.386Z,1.77
2023-08-14T04:05:06.118Z,1.98
2023-08-14T04:07:34.159Z,2.30
2023-08-14T04:10:02.364Z,2.13
2023-08-14T04:12:30.304Z,1.65
2023-08-14T04:15:13.904Z,1.65
2023-08-14T04:17:41.820Z,1.90
2023-08-14T04:20:10.713Z,2.05
2023-08-14T04:22:38.583Z,2.10
2023-08-14T04:25:07.590Z,1.98
2023-08-14T04:27:37.336Z,1.80
2023-08-14T04:32:35.476Z,2.00
2023-08-14T04:35:04.653Z,1.98
2023-08-14T04:37:32.934Z,2.55
2023-08-14T04:40:00.909Z,2.30
2023-08-14T04:42:28.875Z,3.85
2023-08-14T04:44:56.736Z,3.10
2023-08-14T04:47:25.956Z,3.45
2023-08-14T04:49:53.850Z,3.78
2023-08-14T04:52:23.340Z,4.05
2023-08-14T04:54:51.643Z,3.70
2023-08-14T04:57:19.649Z,3.83
2023-08-14T04:59:47.827Z,3.65
2023-08-14T05:02:15.986Z,3.90
2023-08-14T05:04:45.519Z,3.63
2023-08-14T05:07:13.445Z,3.50
2023-08-14T05:09:41.368Z,3.13
2023-08-14T05:12:09.530Z,2.90
2023-08-14T05:14:37.388Z,3.20
2023-08-14T05:17:05.383Z,3.00
2023-08-14T05:19:33.510Z,3.50
2023-08-14T05:22:02.719Z,2.40
2023-08-14T05:24:30.714Z,2.75
2023-08-14T05:26:58.577Z,2.50
2023-08-14T05:29:26.434Z,2.50
2023-08-14T05:31:54.285Z,2.67
2023-08-14T05:34:22.154Z,2.33
2023-08-14T05:36:50.027Z,2.80
2023-08-14T05:39:20.418Z,2.60
2023-08-14T05:41:48.274Z,2.70
2023-08-14T05:44:16.120Z,2.72
2023-08-14T05:46:46.641Z,2.85
2023-08-14T05:49:17.006Z,2.40
2023-08-14T05:51:45.823Z,2.70
2023-08-14T05:54:13.791Z,2.60
2023-08-14T05:56:42.986Z,2.60
2023-08-14T05:59:10.920Z,2.53
2023-08-14T06:01:39.997Z,2.60
2023-08-14T06:04:08.394Z,2.58
2023-08-14T06:06:36.371Z,3.00
2023-08-14T06:09:04.387Z,3.38
2023-08-14T06:11:32.344Z,3.13
2023-08-14T06:14:01.514Z,2.42
2023-08-14T06:16:29.591Z,2.65
2023-08-14T06:18:57.588Z,2.22
2023-08-14T06:21:25.654Z,2.38
2023-08-14T06:23:53.731Z,2.45
2023-08-14T06:26:22.279Z,2.53
2023-08-14T06:28:50.179Z,2.65
2023-08-14T06:31:19.545Z,2.72
2023-08-14T06:33:47.929Z,2.83
2023-08-14T06:36:16.405Z,2.30
2023-08-14T06:38:44.298Z,2.47
2023-08-14T06:41:12.117Z,2.42
2023-08-14T06:43:39.973Z,2.75
2023-08-14T06:46:08.006Z,2.50
2023-08-14T06:48:37.257Z,2.42
2023-08-14T06:51:05.300Z,1.98
2023-08-14T06:53:33.910Z,2.15
2023-08-14T06:56:01.837Z,2.30
2023-08-14T06:58:29.803Z,2.53
2023-08-14T07:00:57.747Z,3.13
2023-08-14T07:03:25.660Z,5.30
2023-08-14T07:05:55.074Z,5.07
2023-08-14T07:08:22.951Z,4.43
2023-08-14T07:10:50.756Z,5.30
2023-08-14T07:13:18.978Z,5.97
2023-08-14T07:15:48.621Z,5.47
2023-08-14T07:18:17.117Z,6.70
2023-08-14T07:20:46.227Z,5.57
2023-08-14T07:23:15.725Z,5.80
2023-08-14T07:25:43.484Z,6.18
2023-08-14T07:28:11.474Z,4.57
2023-08-14T07:30:40.652Z,4.75
2023-08-14T07:33:09.007Z,4.50
2023-08-14T07:35:36.905Z,3.92
2023-08-14T07:38:05.394Z,3.97
2023-08-14T07:40:34.581Z,3.50
2023-08-14T07:43:02.479Z,3.67
2023-08-14T07:45:30.261Z,3.20
2023-08-14T07:47:58.133Z,3.53
2023-08-14T07:50:26.078Z,3.90
2023-08-14T07:52:53.929Z,3.30
2023-08-14T07:55:21.982Z,2.85
2023-08-14T07:57:51.098Z,3.20
2023-08-14T08:00:19.502Z,2.85
2023-08-14T08:02:47.557Z,2.95
2023-08-14T08:05:17.408Z,2.35
2023-08-14T08:07:46.722Z,2.67
2023-08-14T08:10:14.543Z,2.63
2023-08-14T08:12:42.430Z,2.80
2023-08-14T08:15:12.070Z,3.33
2023-08-14T08:17:40.157Z,2.55
2023-08-14T08:20:09.210Z,2.20
2023-08-14T08:22:37.199Z,2.17
2023-08-14T08:25:05.702Z,2.30
2023-08-14T08:27:33.663Z,2.00
2023-08-14T08:30:01.535Z,2.35
2023-08-14T08:32:31.299Z,2.40
2023-08-14T08:34:59.331Z,2.47
2023-08-14T08:37:27.183Z,2.25
2023-08-14T08:39:55.000Z,2.15
2023-08-14T08:42:24.223Z,2.22
2023-08-14T08:44:54.999Z,2.40
2023-08-14T08:47:26.604Z,2.78
2023-08-14T08:49:56.731Z,2.22
2023-08-14T08:52:25.747Z,2.55
2023-08-14T08:54:54.391Z,2.58
2023-08-14T08:57:23.062Z,2.53
2023-08-14T08:59:52.805Z,2.83
2023-08-14T09:02:21.162Z,2.72
2023-08-14T09:04:49.318Z,2.73
2023-08-14T09:07:18.877Z,2.60
2023-08-14T09:09:47.158Z,2.42
2023-08-14T09:12:15.342Z,1.85
2023-08-14T09:14:45.263Z,2.42
2023-08-14T09:17:14.625Z,2.20
2023-08-14T09:19:44.798Z,2.10
2023-08-14T09:22:12.751Z,2.35
2023-08-14T09:24:41.956Z,2.00
2023-08-14T09:29:38.558Z,1.60
2023-08-14T09:32:06.474Z,2.15
2023-08-14T09:34:34.409Z,2.38
2023-08-14T09:37:02.183Z,2.03
2023-08-14T09:39:30.096Z,1.95
2023-08-14T09:41:59.271Z,1.52
2023-08-14T09:46:55.952Z,2.10
2023-08-14T09:49:24.259Z,1.95
2023-08-14T09:51:56.796Z,2.22
2023-08-14T09:54:35.375Z,1.90
2023-08-14T09:57:09.617Z,1.77
2023-08-14T09:59:38.296Z,1.40
2023-08-14T10:02:13.624Z,1.63
2023-08-14T10:04:42.797Z,1.70
2023-08-14T10:07:11.960Z,1.65
2023-08-14T10:09:45.794Z,1.77
2023-08-14T10:12:17.501Z,1.33
2023-08-14T10:14:52.512Z,1.83
2023-08-14T10:17:23.331Z,1.63
2023-08-14T10:19:54.251Z,2.00
2023-08-14T10:22:24.471Z,1.35
2023-08-14T10:24:55.955Z,1.70
2023-08-14T10:27:26.800Z,2.00
2023-08-14T10:29:54.750Z,1.95
2023-08-14T10:32:23.530Z,1.73
2023-08-14T10:34:52.114Z,1.63
2023-08-14T10:37:27.907Z,1.43
2023-08-14T10:40:13.933Z,1.70
2023-08-14T10:42:46.157Z,1.30
2023-08-14T10:45:16.785Z,1.60
2023-08-14T10:47:45.825Z,1.27
2023-08-14T10:50:19.994Z,1.60
2023-08-14T10:52:50.191Z,1.52
2023-08-14T10:55:20.561Z,1.40
2023-08-14T10:57:49.771Z,1.23
2023-08-14T11:02:54.710Z,1.60
2023-08-14T11:05:25.318Z,1.50
2023-08-14T11:08:01.599Z,1.20
2023-08-14T11:10:29.777Z,1.30
2023-08-14T11:12:59.751Z,1.60
2023-08-14T11:15:27.890Z,1.38
2023-08-14T11:17:56.066Z,1.30
2023-08-14T11:20:24.005Z,1.60
2023-08-14T11:22:51.877Z,1.50
2023-08-14T11:25:19.772Z,1.30
2023-08-14T11:27:50.575Z,1.00
2023-08-14T11:32:54.675Z,1.38
2023-08-14T11:37:55.447Z,1.20
2023-08-14T11:40:23.280Z,1.10
2023-08-14T11:42:52.190Z,1.40
2023-08-14T11:45:21.495Z,1.30
2023-08-14T11:50:20.199Z,1.48
2023-08-14T11:52:48.218Z,1.60
2023-08-14T11:55:16.258Z,1.35
2023-08-14T11:57:45.897Z,1.27
2023-08-14T12:00:17.808Z,1.15
2023-08-14T12:02:52.463Z,1.20
2023-08-14T12:05:22.159Z,1.55
2023-08-14T12:07:50.174Z,1.33
2023-08-14T12:10:18.329Z,1.67
2023-08-14T12:12:54.953Z,1.80
2023-08-14T12:15:24.977Z,2.03
2023-08-14T12:17:54.536Z,1.70
2023-08-14T12:20:23.228Z,1.80
2023-08-14T12:22:59.429Z,1.50
2023-08-14T12:25:30.296Z,1.50
2023-08-14T12:27:59.597Z,1.70
2023-08-14T12:30:27.423Z,1.58
2023-08-14T12:32:59.627Z,1.58
2023-08-14T12:35:27.510Z,1.95
2023-08-14T12:37:55.834Z,1.30
2023-08-14T12:40:25.338Z,1.43
2023-08-14T12:42:54.461Z,1.52
2023-08-14T12:45:22.343Z,1.38
2023-08-14T12:47:50.213Z,1.50
2023-08-14T12:50:19.648Z,2.05
2023-08-14T12:52:47.525Z,1.65
2023-08-14T12:55:19.032Z,1.35
2023-08-14T12:57:48.662Z,1.40
2023-08-14T13:00:17.458Z,1.40
2023-08-14T13:02:45.382Z,1.60
2023-08-14T13:05:13.301Z,1.50
2023-08-14T13:07:42.721Z,1.58
2023-08-14T13:10:11.042Z,1.50
2023-08-14T13:12:38.941Z,1.67
2023-08-14T13:15:07.776Z,1.77
2023-08-14T13:17:35.636Z,1.58
2023-08-14T13:20:03.925Z,2.15
2023-08-14T13:22:31.809Z,1.43
2023-08-14T13:25:00.996Z,1.70
2023-08-14T13:29:56.448Z,1.70
2023-08-14T13:32:24.277Z,1.80
2023-08-14T13:34:52.085Z,2.08
2023-08-14T13:37:19.940Z,1.65
2023-08-14T13:39:48.664Z,1.42
2023-08-14T13:42:18.073Z,1.77
2023-08-14T13:44:46.098Z,1.80
2023-08-14T13:47:15.368Z,1.73
2023-08-14T13:49:44.995Z,1.88
2023-08-14T13:52:12.809Z,1.70
2023-08-14T13:54:40.751Z,1.63
2023-08-14T13:57:08.559Z,1.50
2023-08-14T13:59:37.754Z,1.60
2023-08-14T14:04:33.409Z,1.65
2023-08-14T14:07:02.694Z,1.80
2023-08-14T14:09:30.714Z,2.08
2023-08-14T14:11:58.738Z,1.63
2023-08-14T14:14:26.570Z,1.60
2023-08-14T14:17:00.479Z,1.70
2023-08-14T14:19:29.285Z,1.52
2023-08-14T14:21:58.497Z,1.60
2023-08-14T14:24:26.886Z,2.10
2023-08-14T14:26:54.769Z,1.80
2023-08-14T14:29:22.826Z,1.45
2023-08-14T14:31:50.716Z,1.48
2023-08-14T14:34:20.289Z,1.80
2023-08-14T14:36:48.258Z,1.90
2023-08-14T14:39:16.724Z,1.60
2023-08-14T14:41:44.588Z,1.60
2023-08-14T14:44:13.063Z,1.63
2023-08-14T14:46:42.480Z,1.57
2023-08-14T14:49:10.514Z,1.80
2023-08-14T14:51:39.741Z,1.77
2023-08-14T14:56:36.060Z,2.13
2023-08-14T14:59:03.922Z,1.67
2023-08-14T15:01:31.767Z,1.52
2023-08-14T15:03:59.779Z,1.70
2023-08-14T15:06:27.678Z,1.50
2023-08-14T15:08:56.922Z,2.33
2023-08-14T15:13:52.565Z,1.75
2023-08-14T15:16:20.423Z,1.70
2023-08-14T15:18:48.274Z,1.52
2023-08-14T15:21:16.147Z,1.45
2023-08-14T15:23:44.255Z,1.40
2023-08-14T15:26:13.474Z,1.88
2023-08-14T15:31:08.952Z,1.80
2023-08-14T15:33:36.887Z,1.67
2023-08-14T15:36:05.100Z,2.10
2023-08-14T15:38:32.919Z,1.90
2023-08-14T15:41:00.699Z,1.75
2023-08-14T15:43:29.986Z,1.63
2023-08-14T15:46:04.824Z,1.70
2023-08-14T15:48:32.877Z,1.80
2023-08-14T15:51:00.648Z,1.80
2023-08-14T15:53:28.523Z,2.00
2023-08-14T15:55:56.364Z,1.35
2023-08-14T15:58:24.229Z,1.95
2023-08-14T16:00:53.812Z,1.40
2023-08-14T16:03:21.721Z,1.48
2023-08-14T16:05:55.648Z,1.25
2023-08-14T16:08:23.500Z,1.48
2023-08-14T16:10:51.318Z,1.55
2023-08-14T16:13:19.183Z,1.60
2023-08-14T16:15:47.125Z,1.40
2023-08-14T16:18:16.344Z,1.80
2023-08-14T16:23:12.286Z,1.48
2023-08-14T16:25:40.402Z,2.20
2023-08-14T16:28:08.337Z,3.85
2023-08-14T16:30:36.185Z,2.50
2023-08-14T16:33:05.087Z,2.60
2023-08-14T16:35:34.452Z,2.00
2023-08-14T16:40:29.979Z,2.10
2023-08-14T16:42:57.814Z,2.40
2023-08-14T16:45:26.274Z,2.25
2023-08-14T16:47:54.125Z,2.10
2023-08-14T16:50:21.961Z,1.85
2023-08-14T16:52:51.173Z,2.22
2023-08-14T16:57:46.765Z,2.30
2023-08-14T17:00:15.463Z,2.00
2023-08-14T17:02:43.277Z,2.22
2023-08-14T17:05:11.686Z,2.08
2023-08-14T17:07:39.597Z,2.10
2023-08-14T17:10:09.152Z,2.60
2023-08-14T17:12:37.089Z,2.10
2023-08-14T17:15:05.530Z,1.77
2023-08-14T17:17:33.373Z,1.77
2023-08-14T17:20:01.222Z,1.90
2023-08-14T17:22:29.100Z,1.92
2023-08-14T17:24:57.037Z,2.20
2023-08-14T17:27:26.231Z,2.00
2023-08-14T17:29:54.001Z,2.00
2023-08-14T17:32:21.921Z,1.98
2023-08-14T17:34:49.901Z,2.22
2023-08-14T17:37:18.254Z,2.28
2023-08-14T17:39:46.593Z,1.77
2023-08-14T17:42:14.382Z,2.42
2023-08-14T17:44:44.236Z,2.78
2023-08-14T17:47:12.029Z,3.28
2023-08-14T17:49:39.844Z,2.65
2023-08-14T17:52:07.770Z,2.22
2023-08-14T17:54:35.610Z,2.60
2023-08-14T17:57:03.531Z,2.83
2023-08-14T17:59:31.406Z,2.58
2023-08-14T18:02:00.670Z,2.05
2023-08-14T18:06:56.467Z,1.80
2023-08-14T18:09:24.331Z,2.38
2023-08-14T18:11:52.234Z,2.40
2023-08-14T18:14:20.110Z,2.38
2023-08-14T18:16:47.948Z,2.22
2023-08-14T18:21:47.830Z,2.35
2023-08-14T18:24:15.674Z,2.63
2023-08-14T18:26:43.781Z,2.25
2023-08-14T18:29:11.726Z,2.38
2023-08-14T18:31:39.572Z,2.17
2023-08-14T18:34:07.972Z,2.45
2023-08-14T18:36:37.299Z,2.28
2023-08-14T18:39:06.034Z,2.20
2023-08-14T18:41:34.306Z,2.30
2023-08-14T18:44:02.131Z,2.63
2023-08-14T18:46:29.973Z,2.30
2023-08-14T18:48:57.819Z,2.80
2023-08-14T18:51:25.712Z,2.33
2023-08-14T18:53:55.359Z,2.33
2023-08-14T18:56:23.310Z,2.60
2023-08-14T18:58:51.906Z,2.25
2023-08-14T19:01:19.802Z,2.07
2023-08-14T19:03:47.657Z,2.33
2023-08-14T19:06:15.515Z,2.47
2023-08-14T19:08:43.334Z,2.97
2023-08-14T19:11:13.048Z,2.45
2023-08-14T19:13:41.705Z,2.55
2023-08-14T19:16:09.605Z,3.17
2023-08-14T19:18:37.457Z,2.83
2023-08-14T19:21:05.656Z,2.88
2023-08-14T19:23:33.458Z,2.63
2023-08-14T19:26:06.534Z,3.00
2023-08-14T19:28:41.399Z,2.23
2023-08-14T19:31:09.547Z,2.63
2023-08-14T19:33:40.306Z,2.20
2023-08-14T19:36:08.121Z,2.20
2023-08-14T19:38:36.196Z,2.40
2023-08-14T19:41:04.059Z,2.30
2023-08-14T19:43:31.915Z,2.53
2023-08-14T19:46:01.067Z,2.30
2023-08-14T19:48:29.006Z,2.20
2023-08-14T19:50:58.132Z,2.30
2023-08-14T19:53:26.126Z,2.20
2023-08-14T19:55:53.949Z,2.33
2023-08-14T19:58:23.212Z,2.25
2023-08-14T20:00:51.581Z,2.17
2023-08-14T20:03:20.855Z,1.92
2023-08-14T20:05:49.047Z,2.17
2023-08-14T20:08:17.357Z,2.25
2023-08-14T20:10:47.374Z,2.13
2023-08-14T20:13:15.483Z,2.40
2023-08-14T20:15:46.582Z,2.47
2023-08-14T20:18:17.691Z,2.38
2023-08-14T20:20:47.051Z,2.25
2023-08-14T20:23:14.865Z,2.42
2023-08-14T20:25:44.307Z,2.00
2023-08-14T20:28:12.862Z,2.00
2023-08-14T20:30:42.797Z,2.05
2023-08-14T20:33:10.956Z,2.25
2023-08-14T20:35:42.567Z,2.40
2023-08-14T20:38:12.635Z,2.40
2023-08-14T20:40:41.145Z,2.03
2023-08-14T20:43:10.735Z,2.05
2023-08-14T20:48:08.543Z,2.20
2023-08-14T20:50:37.161Z,2.22
2023-08-14T20:53:05.749Z,2.25
2023-08-14T20:55:35.676Z,1.92
2023-08-14T20:58:03.567Z,2.30
2023-08-14T21:00:31.458Z,2.30
2023-08-14T21:02:59.352Z,2.78
2023-08-14T21:05:27.384Z,2.40
2023-08-14T21:07:55.305Z,2.40
2023-08-14T21:10:23.131Z,2.58
2023-08-14T21:12:52.469Z,2.95
2023-08-14T21:15:20.289Z,2.50
2023-08-14T21:17:48.176Z,2.50
2023-08-14T21:20:16.036Z,2.35
2023-08-14T21:22:45.749Z,2.58
2023-08-14T21:25:13.560Z,2.28
2023-08-14T21:27:41.368Z,2.00
2023-08-14T21:30:11.975Z,2.60
2023-08-14T21:32:40.023Z,2.00
2023-08-14T21:35:08.783Z,2.40
2023-08-14T21:37:37.700Z,2.57
2023-08-14T21:40:06.098Z,2.53
2023-08-14T21:42:33.874Z,2.10
2023-08-14T21:45:01.653Z,2.42
2023-08-14T21:47:30.826Z,2.08
2023-08-14T21:49:58.669Z,2.80
2023-08-14T21:52:26.760Z,2.95
2023-08-14T21:54:54.950Z,2.90
2023-08-14T21:57:22.899Z,2.67
2023-08-14T21:59:50.990Z,3.13
2023-08-14T22:02:18.830Z,2.55
2023-08-14T22:04:48.130Z,2.35
2023-08-14T22:07:16.547Z,2.42
2023-08-14T22:09:44.354Z,2.63
2023-08-14T22:12:12.195Z,2.50
2023-08-14T22:14:40.039Z,2.50
2023-08-14T22:17:07.880Z,2.15
2023-08-14T22:19:35.724Z,2.78
2023-08-14T22:22:05.061Z,2.67
2023-08-14T22:24:40.772Z,2.33
2023-08-14T22:27:09.467Z,2.30
2023-08-14T22:29:37.360Z,2.75
2023-08-14T22:32:05.377Z,2.55
2023-08-14T22:34:33.216Z,2.60
2023-08-14T22:37:01.154Z,2.75
2023-08-14T22:39:31.972Z,2.20
2023-08-14T22:42:00.029Z,2.40
2023-08-14T22:44:27.884Z,2.25
2023-08-14T22:46:55.716Z,2.40
2023-08-14T22:49:23.528Z,2.00
2023-08-14T22:51:51.451Z,2.30
2023-08-14T22:54:19.312Z,2.35
2023-08-14T22:56:48.520Z,2.45
2023-08-14T22:59:16.453Z,2.30
2023-08-14T23:01:44.320Z,3.20
2023-08-14T23:04:12.247Z,2.85
2023-08-14T23:06:40.132Z,2.42
2023-08-14T23:09:07.955Z,2.92
2023-08-14T23:11:35.879Z,2.30
2023-08-14T23:14:05.329Z,2.50
2023-08-14T23:16:33.206Z,2.63
2023-08-14T23:19:01.010Z,2.85
2023-08-14T23:21:28.853Z,2.13
2023-08-14T23:23:56.661Z,2.72
2023-08-14T23:26:24.610Z,2.60
2023-08-14T23:28:52.592Z,2.28
2023-08-14T23:31:22.817Z,2.88
2023-08-14T23:33:50.713Z,2.47
2023-08-14T23:36:18.597Z,3.00
2023-08-14T23:38:46.388Z,2.67
2023-08-14T23:41:14.152Z,3.03
2023-08-14T23:43:41.980Z,3.28
2023-08-14T23:46:10.017Z,3.35
2023-08-14T23:48:39.205Z,3.88
2023-08-14T23:51:07.083Z,3.72
2023-08-14T23:53:35.368Z,3.85
2023-08-14T23:56:03.145Z,3.65
2023-08-14T23:58:30.993Z,4.03
